Time,TemperatureF,DewpointF,PressureIn,WindDirection,WindDirectionDegrees,WindSpeedMPH,WindSpeedGustMPH,Humidity,HourlyPrecipIn,Conditions,Clouds,dailyrainin,SoftwareType,DateUTC
2013-01-06 00:17:00,65.7,59.0,30.07,NNE,22,5.8,-999.0,79,-99.99,,,0.00,Acu-Link.com,2013-01-06 05:17:00,
2013-01-06 00:32:00,65.3,58.6,30.07,NNE,22,4.2,-999.0,79,-99.99,,,0.00,Acu-Link.com,2013-01-06 05:32:00,
2013-01-06 00:48:00,65.1,58.4,30.06,NE,45,4.2,-999.0,79,-99.99,,,0.00,Acu-Link.com,2013-01-06 05:48:00,
2013-01-06 01:03:00,64.9,58.2,30.06,ENE,67,3.2,-999.0,79,-99.99,,,0.00,Acu-Link.com,2013-01-06 06:03:00,
2013-01-06 01:18:00,64.9,58.2,30.05,NE,45,3.7,-999.0,79,-99.99,,,0.00,Acu-Link.com,2013-01-06 06:18:00,
2013-01-06 01:34:00,64.9,58.6,30.05,NE,45,3.7,-999.0,80,-99.99,,,0.00,Acu-Link.com,2013-01-06 06:34:00,
2013-01-06 01:49:00,64.8,58.5,30.04,NE,45,2.2,-999.0,80,-99.99,,,0.00,Acu-Link.com,2013-01-06 06:49:00,
2013-01-06 02:04:00,64.9,58.6,30.04,NE,45,2.2,-999.0,80,-99.99,,,0.00,Acu-Link.com,2013-01-06 07:04:00,
2013-01-06 02:20:00,64.9,58.6,30.04,NE,45,2.2,-999.0,80,-99.99,,,0.00,Acu-Link.com,2013-01-06 07:20:00,
2013-01-06 02:35:00,64.9,58.9,30.04,NNE,22,2.7,-999.0,81,-99.99,,,0.00,Acu-Link.com,2013-01-06 07:35:00,
2013-01-06 02:50:00,64.9,58.9,30.04,NNE,22,2.2,-999.0,81,-99.99,,,0.00,Acu-Link.com,2013-01-06 07:50:00,
2013-01-06 03:05:00,64.9,59.3,30.04,NNE,22,3.7,-999.0,82,-99.99,,,0.00,Acu-Link.com,2013-01-06 08:05:00,
2013-01-06 03:21:00,64.9,59.3,30.04,NNE,22,2.7,-999.0,82,-99.99,,,0.00,Acu-Link.com,2013-01-06 08:21:00,
2013-01-06 03:36:00,64.8,59.8,30.03,NE,45,3.7,-999.0,84,-99.99,,,0.00,Acu-Link.com,2013-01-06 08:36:00,
2013-01-06 03:51:00,64.6,59.7,30.03,NE,45,2.7,-999.0,84,-99.99,,,0.00,Acu-Link.com,2013-01-06 08:51:00,
2013-01-06 04:09:00,64.4,59.5,30.02,NNW,337,3.7,-999.0,84,-99.99,,,0.00,Acu-Link.com,2013-01-06 09:09:00,
2013-01-06 04:24:00,64.0,59.4,30.02,NE,45,2.7,-999.0,85,-99.99,,,0.00,Acu-Link.com,2013-01-06 09:24:00,
2013-01-06 04:39:00,63.9,59.6,30.01,NNW,337,3.2,-999.0,86,-99.99,,,0.00,Acu-Link.com,2013-01-06 09:39:00,
2013-01-06 04:54:00,63.7,59.8,30.01,North,0,4.7,-999.0,87,-99.99,,,0.00,Acu-Link.com,2013-01-06 09:54:00,
2013-01-06 05:10:00,63.7,60.1,30.01,ENE,67,3.2,-999.0,88,-99.99,,,0.00,Acu-Link.com,2013-01-06 10:10:00,
2013-01-06 05:25:00,63.5,59.9,30.01,East,90,2.7,-999.0,88,-99.99,,,0.00,Acu-Link.com,2013-01-06 10:25:00,
2013-01-06 05:40:00,63.3,60.0,30.01,NE,45,4.2,-999.0,89,-99.99,,,0.00,Acu-Link.com,2013-01-06 10:40:00,
2013-01-06 05:55:00,63.3,60.0,30.01,NE,45,4.2,-999.0,89,-99.99,,,0.00,Acu-Link.com,2013-01-06 10:55:00,
2013-01-06 06:11:00,63.3,60.0,30.01,ESE,112,3.2,-999.0,89,-99.99,,,0.00,Acu-Link.com,2013-01-06 11:11:00,
2013-01-06 06:26:00,63.3,60.3,30.01,East,90,5.3,-999.0,90,-99.99,,,0.00,Acu-Link.com,2013-01-06 11:26:00,
2013-01-06 06:41:00,63.3,60.3,30.01,ESE,112,4.2,-999.0,90,-99.99,,,0.00,Acu-Link.com,2013-01-06 11:41:00,
2013-01-06 06:57:00,63.3,60.3,30.02,East,90,4.2,-999.0,90,-99.99,,,0.00,Acu-Link.com,2013-01-06 11:57:00,
2013-01-06 07:12:00,63.1,60.1,30.03,ESE,112,4.7,-999.0,90,-99.99,,,0.00,Acu-Link.com,2013-01-06 12:12:00,
2013-01-06 07:27:00,63.1,60.1,30.03,ESE,112,3.2,-999.0,90,-99.99,,,0.00,Acu-Link.com,2013-01-06 12:27:00,
2013-01-06 07:42:00,63.1,60.1,30.04,East,90,2.7,-999.0,90,-99.99,,,0.00,Acu-Link.com,2013-01-06 12:42:00,
2013-01-06 07:58:00,63.1,60.1,30.04,ESE,112,2.7,-999.0,90,-99.99,,,0.00,Acu-Link.com,2013-01-06 12:58:00,
2013-01-06 08:13:00,63.1,60.1,30.03,ESE,112,3.2,-999.0,90,-99.99,,,0.00,Acu-Link.com,2013-01-06 13:13:00,
2013-01-06 08:28:00,63.5,60.5,30.04,ESE,112,5.3,-999.0,90,-99.99,,,0.00,Acu-Link.com,2013-01-06 13:28:00,
2013-01-06 08:44:00,63.7,60.7,30.03,ESE,112,6.3,-999.0,90,-99.99,,,0.00,Acu-Link.com,2013-01-06 13:44:00,
2013-01-06 08:59:00,63.7,60.7,30.03,ESE,112,7.3,-999.0,90,-99.99,,,0.00,Acu-Link.com,2013-01-06 13:59:00,
2013-01-06 09:14:00,64.0,61.0,30.04,ESE,112,4.2,-999.0,90,-99.99,,,0.00,Acu-Link.com,2013-01-06 14:14:00,
2013-01-06 09:30:00,64.6,61.9,30.04,ESE,112,4.2,-999.0,91,-99.99,,,0.00,Acu-Link.com,2013-01-06 14:30:00,
2013-01-06 09:45:00,65.5,62.8,30.04,ESE,112,3.2,-999.0,91,-99.99,,,0.00,Acu-Link.com,2013-01-06 14:45:00,
2013-01-06 10:00:00,66.2,63.5,30.03,ESE,112,3.7,-999.0,91,-99.99,,,0.00,Acu-Link.com,2013-01-06 15:00:00,
2013-01-06 10:15:00,67.1,64.1,30.04,ESE,112,4.7,-999.0,90,-99.99,,,0.00,Acu-Link.com,2013-01-06 15:15:00,
2013-01-06 10:31:00,67.8,63.8,30.04,ESE,112,2.7,-999.0,87,-99.99,,,0.00,Acu-Link.com,2013-01-06 15:31:00,
2013-01-06 10:46:00,68.9,63.9,30.04,SSW,202,1.7,-999.0,84,-99.99,,,0.00,Acu-Link.com,2013-01-06 15:46:00,
2013-01-06 11:01:00,71.1,64.6,30.03,NNE,22,2.7,-999.0,80,-99.99,,,0.00,Acu-Link.com,2013-01-06 16:01:00,
2013-01-06 11:16:00,72.5,64.5,30.03,ESE,112,1.1,-999.0,76,-99.99,,,0.00,Acu-Link.com,2013-01-06 16:16:00,
2013-01-06 11:32:00,71.8,64.2,30.03,East,90,3.2,-999.0,77,-99.99,,,0.00,Acu-Link.com,2013-01-06 16:32:00,
2013-01-06 11:47:00,72.3,64.7,30.01,ESE,112,5.8,-999.0,77,-99.99,,,0.00,Acu-Link.com,2013-01-06 16:47:00,
2013-01-06 12:02:00,74.1,65.3,30.01,SSE,157,1.7,-999.0,74,-99.99,,,0.00,Acu-Link.com,2013-01-06 17:02:00,
2013-01-06 12:17:00,75.0,66.1,30.00,NE,45,1.7,-999.0,74,-99.99,,,0.00,Acu-Link.com,2013-01-06 17:17:00,
2013-01-06 12:33:00,75.4,66.1,29.98,ESE,112,4.2,-999.0,73,-99.99,,,0.00,Acu-Link.com,2013-01-06 17:33:00,
2013-01-06 12:48:00,75.9,66.2,29.97,ESE,112,4.7,-999.0,72,-99.99,,,0.00,Acu-Link.com,2013-01-06 17:48:00,
2013-01-06 13:03:00,77.2,65.8,29.96,SE,135,4.2,-999.0,68,-99.99,,,0.00,Acu-Link.com,2013-01-06 18:03:00,
2013-01-06 13:18:00,75.9,65.4,29.95,ESE,112,3.7,-999.0,70,-99.99,,,0.00,Acu-Link.com,2013-01-06 18:18:00,
2013-01-06 13:34:00,79.0,66.7,29.94,NNE,22,3.2,-999.0,66,-99.99,,,0.00,Acu-Link.com,2013-01-06 18:34:00,
2013-01-06 13:49:00,78.1,66.2,29.94,East,90,2.2,-999.0,67,-99.99,,,0.00,Acu-Link.com,2013-01-06 18:49:00,
2013-01-06 14:04:00,79.7,66.4,29.93,South,180,2.7,-999.0,64,-99.99,,,0.00,Acu-Link.com,2013-01-06 19:04:00,
2013-01-06 14:20:00,79.0,66.2,29.92,SSW,202,2.2,-999.0,65,-99.99,,,0.00,Acu-Link.com,2013-01-06 19:20:00,
2013-01-06 14:35:00,79.0,65.8,29.92,SW,225,1.7,-999.0,64,-99.99,,,0.00,Acu-Link.com,2013-01-06 19:35:00,
2013-01-06 15:06:00,80.8,67.0,29.92,SSW,202,1.7,-999.0,63,-99.99,,,0.00,Acu-Link.com,2013-01-06 20:06:00,
2013-01-06 15:21:00,81.5,67.2,29.92,North,0,1.7,-999.0,62,-99.99,,,0.00,Acu-Link.com,2013-01-06 20:21:00,
2013-01-06 15:36:00,80.4,66.2,29.92,NNW,337,1.7,-999.0,62,-99.99,,,0.00,Acu-Link.com,2013-01-06 20:36:00,
2013-01-06 15:52:00,78.6,65.4,29.92,West,270,2.7,-999.0,64,-99.99,,,0.00,Acu-Link.com,2013-01-06 20:52:00,
2013-01-06 16:07:00,76.1,65.6,29.92,NNE,22,2.2,-999.0,70,-99.99,,,0.00,Acu-Link.com,2013-01-06 21:07:00,
2013-01-06 16:22:00,75.4,65.3,29.92,NNW,337,1.7,-999.0,71,-99.99,,,0.00,Acu-Link.com,2013-01-06 21:22:00,
2013-01-06 16:38:00,75.0,65.3,29.92,North,0,1.1,-999.0,72,-99.99,,,0.00,Acu-Link.com,2013-01-06 21:38:00,
2013-01-06 16:53:00,74.7,65.5,29.92,North,0,0.0,-999.0,73,-99.99,,,0.00,Acu-Link.com,2013-01-06 21:53:00,
2013-01-06 17:08:00,74.3,65.8,29.92,NW,315,1.7,-999.0,75,-99.99,,,0.00,Acu-Link.com,2013-01-06 22:08:00,
2013-01-06 17:24:00,73.6,65.6,29.93,SSW,202,0.0,-999.0,76,-99.99,,,0.00,Acu-Link.com,2013-01-06 22:24:00,
2013-01-06 17:39:00,72.7,65.8,29.94,WSW,247,0.0,-999.0,79,-99.99,,,0.00,Acu-Link.com,2013-01-06 22:39:00,
2013-01-06 17:54:00,72.1,65.6,29.94,WSW,247,2.2,-999.0,80,-99.99,,,0.00,Acu-Link.com,2013-01-06 22:54:00,
2013-01-06 18:10:00,71.2,65.1,29.95,West,270,4.7,-999.0,81,-99.99,,,0.01,Acu-Link.com,2013-01-06 23:10:00,
2013-01-06 18:25:00,70.5,65.1,29.94,SW,225,0.0,-999.0,83,-99.99,,,0.02,Acu-Link.com,2013-01-06 23:25:00,
2013-01-06 18:40:00,70.3,65.2,29.95,NNE,22,5.3,-999.0,84,-99.99,,,0.02,Acu-Link.com,2013-01-06 23:40:00,
2013-01-06 18:55:00,70.3,65.6,29.95,SW,225,0.0,-999.0,85,-99.99,,,0.02,Acu-Link.com,2013-01-06 23:55:00,
2013-01-06 19:10:00,70.0,65.3,29.95,WNW,292,0.0,-999.0,85,-99.99,,,0.02,Acu-Link.com,2013-01-07 00:10:00,
2013-01-06 19:26:00,69.8,65.1,29.96,WSW,247,0.0,-999.0,85,-99.99,,,0.02,Acu-Link.com,2013-01-07 00:26:00,
2013-01-06 19:41:00,69.6,64.9,29.96,WSW,247,1.7,-999.0,85,-99.99,,,0.02,Acu-Link.com,2013-01-07 00:41:00,
2013-01-06 19:56:00,69.3,64.9,29.96,WSW,247,0.0,-999.0,86,-99.99,,,0.02,Acu-Link.com,2013-01-07 00:56:00,
2013-01-06 20:12:00,68.9,64.5,29.96,West,270,1.1,-999.0,86,-99.99,,,0.02,Acu-Link.com,2013-01-07 01:12:00,
2013-01-06 20:27:00,68.5,64.1,29.96,West,270,0.0,-999.0,86,-99.99,,,0.02,Acu-Link.com,2013-01-07 01:27:00,
2013-01-06 20:42:00,68.4,64.0,29.97,West,270,0.0,-999.0,86,-99.99,,,0.02,Acu-Link.com,2013-01-07 01:42:00,
2013-01-06 20:58:00,68.0,63.6,29.97,West,270,2.2,-999.0,86,-99.99,,,0.02,Acu-Link.com,2013-01-07 01:58:00,
2013-01-06 21:13:00,68.0,63.6,29.97,West,270,1.1,-999.0,86,-99.99,,,0.02,Acu-Link.com,2013-01-07 02:13:00,
2013-01-06 21:28:00,67.8,63.8,29.98,West,270,1.7,-999.0,87,-99.99,,,0.02,Acu-Link.com,2013-01-07 02:28:00,
2013-01-06 21:43:00,67.8,64.1,29.98,West,270,0.0,-999.0,88,-99.99,,,0.02,Acu-Link.com,2013-01-07 02:43:00,
2013-01-06 21:58:00,67.8,64.1,29.97,West,270,1.7,-999.0,88,-99.99,,,0.02,Acu-Link.com,2013-01-07 02:58:00,
2013-01-06 22:14:00,68.2,64.5,29.98,North,0,1.7,-999.0,88,-99.99,,,0.02,Acu-Link.com,2013-01-07 03:14:00,
2013-01-06 22:29:00,68.4,64.7,29.98,NNE,22,3.7,-999.0,88,-99.99,,,0.02,Acu-Link.com,2013-01-07 03:29:00,
2013-01-06 22:44:00,68.2,64.5,29.97,North,0,2.7,-999.0,88,-99.99,,,0.02,Acu-Link.com,2013-01-07 03:44:00,
2013-01-06 23:00:00,68.0,64.3,29.97,NW,315,2.7,-999.0,88,-99.99,,,0.02,Acu-Link.com,2013-01-07 04:00:00,
2013-01-06 23:15:00,68.0,64.3,29.98,NW,315,0.0,-999.0,88,-99.99,,,0.02,Acu-Link.com,2013-01-07 04:15:00,
2013-01-06 23:30:00,67.8,64.1,29.98,North,0,3.7,-999.0,88,-99.99,,,0.02,Acu-Link.com,2013-01-07 04:30:00,
2013-01-06 23:46:00,67.8,64.1,29.98,NNE,22,3.7,-999.0,88,-99.99,,,0.02,Acu-Link.com,2013-01-07 04:46:00,